METAR Data
IDs: Format: Raw Decoded Include TAF

Data at: 1420 UTC 21 Apr 2021

METAR for:KDNS (Denison Muni, IA, US)
Text:KDNS 211415Z AUTO 36012KT 10SM SCT050 01/M08 A3028 RMK AO2
Temperature: 1.0°C ( 34°F)
Dewpoint: -8.0°C ( 18°F) [RH = 51%]
Pressure (altimeter):30.28 inches Hg (1025.5 mb)
Winds:from the N (360 degrees) at 14 MPH (12 knots; 6.2 m/s)
Visibility:10 or more sm (16+ km)
Ceiling:at least 12,000 feet AGL
Clouds: scattered clouds at 5000 feet AGL
QC Flag:automated observation with no human augmentation